Terminal Aerodrome Forecast
Issued by NWS

Home | Current Version | Previous Version | Graphics & Text | Print | Product List | Glossary On
Versions: 1 2 3 4 5 6 7 8 9 10 11 12 13 14 15 16
141
FTUS43 KPAH 271720
TAFCGI
TAF
KCGI 271720Z 2718/2818 VRB03KT P6SM SCT040
     FM280000 VRB03KT P6SM SKC
     FM280800 00000KT 4SM BR SKC
     FM281300 05003KT P6SM SKC
     FM281600 06007KT P6SM SCT040=

USA.gov is the U.S. government's official web portal to all federal, state and local government web resources and services.